Time;durP1;ratioP1;P1;durP2;ratioP2;P2;SDS_P1;SDS_P2;PMS_P1;PMS_P2;Temp;Humidity;BMP_temperature;BMP_pressure;BME280_temperature;BME280_humidity;BME280_pressure;Samples;Min_cycle;Max_cycle;Signal;HPM_P1;HPM_P2
2023/03/03 00:00:02;;;;;;;39.17;21.08;;;;;;;;;;5126852;27;20039;-49
2023/03/03 00:02:28;;;;;;;35.10;19.30;;;;;;;;;;5126716;27;20197;-47
2023/03/03 00:04:54;;;;;;;36.13;21.60;;;;;;;;;;5127006;27;20019;-46
2023/03/03 00:07:21;;;;;;;34.63;19.95;;;;;;;;;;5127530;27;20050;-47
2023/03/03 00:09:49;;;;;;;34.55;20.10;;;;;;;;;;5127834;27;20027;-48
2023/03/03 00:12:23;;;;;;;32.22;18.92;;;;;;;;;;5126947;27;20103;-46
2023/03/03 00:14:50;;;;;;;31.63;18.15;;;;;;;;;;5127330;27;20038;-45
2023/03/03 00:17:26;;;;;;;32.75;19.48;;;;;;;;;;5125794;27;20023;-50
2023/03/03 00:19:53;;;;;;;29.20;16.30;;;;;;;;;;5125412;27;20039;-47
2023/03/03 00:22:27;;;;;;;27.38;15.60;;;;;;;;;;5127706;27;20446;-46
2023/03/03 00:24:53;;;;;;;;;;;;;;;;;;5128258;27;20035;-51
2023/03/03 00:27:37;;;;;;;23.55;14.40;;;;;;;;;;5128671;27;19904;-48
2023/03/03 00:30:03;;;;;;;24.48;14.50;;;;;;;;;;5127552;27;20011;-48
2023/03/03 00:32:45;;;;;;;23.35;13.65;;;;;;;;;;5127279;27;20054;-48
2023/03/03 00:35:38;;;;;;;22.50;13.82;;;;;;;;;;5128167;27;20110;-47
2023/03/03 00:38:17;;;;;;;24.05;13.90;;;;;;;;;;5124914;27;20039;-48
2023/03/03 00:40:43;;;;;;;22.60;13.30;;;;;;;;;;5127372;27;20066;-48
2023/03/03 00:43:23;;;;;;;20.00;12.18;;;;;;;;;;5127332;27;20555;-47
2023/03/03 00:45:51;;;;;;;18.52;11.65;;;;;;;;;;5128194;27;20026;-47
2023/03/03 00:48:19;;;;;;;19.75;12.13;;;;;;;;;;5128859;27;20129;-49
2023/03/03 00:50:46;;;;;;;22.48;12.20;;;;;;;;;;5129048;27;20031;-48
2023/03/03 00:53:16;;;;;;;21.23;12.35;;;;;;;;;;5129018;27;20019;-49
2023/03/03 00:55:42;;;;;;;20.88;12.70;;;;;;;;;;5128888;27;20030;-47
2023/03/03 00:58:09;;;;;;;22.50;12.73;;;;;;;;;;5128912;27;20106;-49
2023/03/03 01:00:35;;;;;;;20.38;12.55;;;;;;;;;;5128731;27;20532;-49
2023/03/03 01:03:02;;;;;;;19.88;11.95;;;;;;;;;;5128368;27;20039;-47
2023/03/03 01:05:29;;;;;;;21.55;12.50;;;;;;;;;;5128834;27;20023;-46
2023/03/03 06:12:26;;;;;;;53.60;27.55;;;;;;;;;;5123974;27;20030;-46
2023/03/03 06:14:52;;;;;;;51.92;26.95;;;;;;;;;;5129552;27;20042;-46
2023/03/03 06:17:18;;;;;;;53.95;27.70;;;;;;;;;;5129708;27;20024;-48
2023/03/03 06:19:45;;;;;;;59.42;29.27;;;;;;;;;;5129124;28;20031;-47
2023/03/03 06:22:11;;;;;;;51.42;25.90;;;;;;;;;;5129039;28;20057;-47
2023/03/03 06:24:37;;;;;;;52.83;26.88;;;;;;;;;;5129195;27;20027;-48
2023/03/03 06:27:03;;;;;;;51.38;25.90;;;;;;;;;;5129278;28;20137;-46
2023/03/03 06:29:30;;;;;;;53.50;26.45;;;;;;;;;;5131179;27;20102;-47
2023/03/03 06:31:56;;;;;;;47.80;24.58;;;;;;;;;;5133310;27;20715;-45
2023/03/03 06:34:22;;;;;;;51.55;26.08;;;;;;;;;;5133679;27;20115;-47
2023/03/03 06:36:48;;;;;;;51.90;28.40;;;;;;;;;;5132338;27;20382;-49
2023/03/03 06:39:14;;;;;;;55.30;27.33;;;;;;;;;;5133506;27;20035;-46
2023/03/03 06:41:40;;;;;;;45.97;25.25;;;;;;;;;;5133113;27;20030;-49
2023/03/03 06:44:07;;;;;;;43.97;23.42;;;;;;;;;;5132936;27;20482;-50
2023/03/03 06:46:33;;;;;;;41.60;22.63;;;;;;;;;;5133176;27;20087;-50
2023/03/03 06:48:59;;;;;;;47.70;27.55;;;;;;;;;;5133281;27;20027;-47
2023/03/03 06:51:28;;;;;;;56.00;31.55;;;;;;;;;;5133016;27;20098;-49
2023/03/03 06:53:55;;;;;;;51.40;29.90;;;;;;;;;;5132628;27;20023;-50
2023/03/03 06:56:26;;;;;;;44.50;25.88;;;;;;;;;;5132678;27;20118;-48
2023/03/03 06:58:56;;;;;;;44.28;24.83;;;;;;;;;;5132681;27;20062;-48
2023/03/03 07:01:22;;;;;;;40.17;23.52;;;;;;;;;;5132608;27;20019;-45
2023/03/03 07:03:48;;;;;;;44.13;24.17;;;;;;;;;;5133256;27;20035;-46
2023/03/03 07:06:19;;;;;;;42.95;23.33;;;;;;;;;;5132515;27;20026;-47
2023/03/03 07:08:45;;;;;;;37.05;20.95;;;;;;;;;;5132304;27;20031;-47
2023/03/03 07:11:15;;;;;;;37.42;20.00;;;;;;;;;;5132165;27;20039;-49
2023/03/03 07:13:44;;;;;;;40.58;20.73;;;;;;;;;;5132519;27;20038;-48
2023/03/03 07:16:12;;;;;;;40.55;20.27;;;;;;;;;;5132351;27;20021;-46
2023/03/03 07:18:41;;;;;;;35.38;19.02;;;;;;;;;;5132565;27;20027;-52
2023/03/03 07:21:17;;;;;;;36.22;18.73;;;;;;;;;;5132491;27;20072;-48
2023/03/03 07:23:44;;;;;;;37.25;19.63;;;;;;;;;;5111776;28;20024;-47
2023/03/03 07:26:18;;;;;;;32.17;17.05;;;;;;;;;;5111961;28;20020;-47
2023/03/03 07:28:48;;;;;;;32.30;17.50;;;;;;;;;;5120311;27;20122;-50
2023/03/03 07:31:26;;;;;;;35.13;18.08;;;;;;;;;;5132034;27;20069;-48
2023/03/03 07:33:53;;;;;;;34.75;18.60;;;;;;;;;;5132512;27;20023;-45
2023/03/03 07:36:27;;;;;;;30.73;17.45;;;;;;;;;;5132440;27;20076;-47
2023/03/03 07:38:54;;;;;;;33.10;18.10;;;;;;;;;;5130964;27;20031;-47
2023/03/03 07:41:22;;;;;;;31.73;17.02;;;;;;;;;;5131698;27;20029;-50
2023/03/03 07:43:53;;;;;;;34.55;18.38;;;;;;;;;;5132256;27;20019;-48
2023/03/03 07:46:38;;;;;;;36.40;19.15;;;;;;;;;;5132049;27;20046;-46
2023/03/03 07:49:12;;;;;;;37.22;19.45;;;;;;;;;;5131705;27;20037;-48
2023/03/03 07:51:42;;;;;;;35.70;19.30;;;;;;;;;;5131531;27;20027;-48
2023/03/03 07:54:17;;;;;;;34.00;19.23;;;;;;;;;;5131831;27;20371;-46
2023/03/03 07:56:43;;;;;;;34.25;19.25;;;;;;;;;;5131771;27;20027;-48
2023/03/03 07:59:20;;;;;;;32.30;17.30;;;;;;;;;;5128518;27;20094;-48
2023/03/03 08:01:48;;;;;;;31.80;18.00;;;;;;;;;;5128784;27;20034;-48
2023/03/03 08:04:23;;;;;;;28.52;16.25;;;;;;;;;;5131893;27;20104;-47
2023/03/03 08:06:54;;;;;;;27.55;16.00;;;;;;;;;;5121364;27;20042;-47
2023/03/03 08:09:21;;;;;;;28.85;16.27;;;;;;;;;;5128793;27;20070;-49
2023/03/03 08:11:47;;;;;;;28.52;16.48;;;;;;;;;;5128058;27;20054;-49
2023/03/03 08:14:15;;;;;;;31.70;17.73;;;;;;;;;;5128460;27;20063;-46
2023/03/03 08:16:41;;;;;;;30.95;17.30;;;;;;;;;;5129439;27;20027;-46
2023/03/03 08:19:07;;;;;;;29.10;16.30;;;;;;;;;;5130557;27;20046;-46
2023/03/03 08:21:33;;;;;;;33.67;18.55;;;;;;;;;;5130804;27;20373;-47
2023/03/03 08:23:59;;;;;;;29.85;16.90;;;;;;;;;;5130880;27;20046;-45
2023/03/03 08:26:26;;;;;;;31.48;17.67;;;;;;;;;;5130612;27;20505;-47
2023/03/03 08:28:52;;;;;;;27.70;15.80;;;;;;;;;;5130237;27;20072;-46
2023/03/03 08:31:19;;;;;;;28.05;16.58;;;;;;;;;;5130062;27;20023;-47
2023/03/03 08:33:45;;;;;;;28.10;16.08;;;;;;;;;;5129826;27;20027;-47
2023/03/03 08:36:12;;;;;;;28.98;16.20;;;;;;;;;;5126113;27;20144;-46
2023/03/03 08:38:38;;;;;;;23.63;13.68;;;;;;;;;;5128155;27;20026;-47
2023/03/03 08:41:04;;;;;;;25.02;14.73;;;;;;;;;;5127390;27;20027;-47
2023/03/03 08:43:30;;;;;;;23.45;14.98;;;;;;;;;;5129357;27;20027;-47
2023/03/03 08:45:58;;;;;;;26.00;14.98;;;;;;;;;;5128908;27;20031;-47
2023/03/03 08:48:24;;;;;;;23.83;14.32;;;;;;;;;;5124589;27;20088;-46
2023/03/03 08:50:51;;;;;;;23.20;14.18;;;;;;;;;;5128799;27;20394;-48
2023/03/03 08:53:17;;;;;;;22.80;13.38;;;;;;;;;;5128416;27;20030;-48
2023/03/03 08:55:44;;;;;;;25.52;14.68;;;;;;;;;;5128034;27;20027;-49
2023/03/03 08:58:10;;;;;;;27.23;14.90;;;;;;;;;;5128633;27;20027;-49
2023/03/03 09:00:37;;;;;;;24.35;13.77;;;;;;;;;;5128648;27;20106;-46
2023/03/03 09:03:05;;;;;;;25.50;14.27;;;;;;;;;;5129245;27;20023;-47
2023/03/03 09:05:32;;;;;;;22.45;13.50;;;;;;;;;;5129228;27;20134;-49
2023/03/03 09:07:59;;;;;;;23.80;13.65;;;;;;;;;;5128379;27;20026;-48
2023/03/03 09:10:28;;;;;;;24.77;14.15;;;;;;;;;;5126532;27;20062;-48
2023/03/03 09:12:57;;;;;;;22.10;13.23;;;;;;;;;;5125434;27;20030;-47
2023/03/03 09:15:30;;;;;;;21.73;13.60;;;;;;;;;;5126705;27;20037;-46
2023/03/03 09:18:02;;;;;;;25.08;15.13;;;;;;;;;;5122625;27;20080;-49
2023/03/03 09:20:36;;;;;;;24.13;13.95;;;;;;;;;;5127158;27;20106;-48
2023/03/03 09:23:23;;;;;;;21.55;13.15;;;;;;;;;;5126511;27;20345;-47
2023/03/03 09:25:50;;;;;;;23.80;14.27;;;;;;;;;;5119286;27;20031;-47
2023/03/03 09:28:34;;;;;;;20.95;13.02;;;;;;;;;;5126312;27;20525;-46
2023/03/03 09:31:02;;;;;;;23.80;13.95;;;;;;;;;;5125705;27;20027;-46
2023/03/03 09:33:40;;;;;;;23.10;13.20;;;;;;;;;;5126562;27;20383;-47
2023/03/03 09:36:09;;;;;;;23.90;13.52;;;;;;;;;;5126723;27;20054;-48
2023/03/03 09:38:40;;;;;;;23.60;13.55;;;;;;;;;;5126303;27;20033;-47
2023/03/03 09:41:08;;;;;;;25.17;14.60;;;;;;;;;;5126090;27;20035;-46
2023/03/03 09:43:35;;;;;;;22.10;13.32;;;;;;;;;;5126431;27;20393;-45
2023/03/03 09:46:19;;;;;;;25.27;14.73;;;;;;;;;;5127467;27;20020;-48
2023/03/03 09:48:45;;;;;;;;;;;;;;;;;;5126758;27;20050;-47
2023/03/03 09:51:14;;;;;;;24.20;14.25;;;;;;;;;;5125991;27;19939;-47
2023/03/03 09:53:50;;;;;;;23.40;14.00;;;;;;;;;;5126397;27;20403;-50
2023/03/03 09:56:17;;;;;;;22.40;12.98;;;;;;;;;;5126179;27;20027;-48
2023/03/03 09:59:03;;;;;;;20.02;11.07;;;;;;;;;;5125866;27;20027;-46
2023/03/03 10:01:48;;;;;;;19.02;10.80;;;;;;;;;;5125989;27;20395;-50
2023/03/03 10:04:25;;;;;;;19.27;11.95;;;;;;;;;;5125577;27;20049;-48
2023/03/03 10:07:21;;;;;;;22.60;13.75;;;;;;;;;;5126284;27;20289;-49
2023/03/03 10:10:05;;;;;;;28.85;14.57;;;;;;;;;;5116631;27;20086;-49
2023/03/03 10:12:34;;;;;;;23.08;12.95;;;;;;;;;;5125732;27;20027;-50
2023/03/03 10:15:18;;;;;;;21.15;13.07;;;;;;;;;;5125591;27;20043;-49
2023/03/03 10:17:45;;;;;;;19.60;11.55;;;;;;;;;;5126328;27;20039;-46
2023/03/03 10:20:30;;;;;;;18.83;10.57;;;;;;;;;;5125598;27;20560;-46
2023/03/03 10:22:56;;;;;;;21.27;12.73;;;;;;;;;;5125655;28;20043;-48
2023/03/03 10:25:22;;;;;;;27.95;16.13;;;;;;;;;;5125081;27;20153;-51
2023/03/03 10:28:00;;;;;;;31.40;19.17;;;;;;;;;;5126044;28;20432;-47
2023/03/03 10:30:35;;;;;;;34.50;20.08;;;;;;;;;;5125778;27;20023;-50
2023/03/03 10:33:06;;;;;;;37.03;20.90;;;;;;;;;;5125587;28;20031;-48
2023/03/03 10:35:41;;;;;;;36.45;20.33;;;;;;;;;;5125693;28;20023;-48
2023/03/03 10:38:26;;;;;;;29.00;17.33;;;;;;;;;;5126253;28;20131;-47
2023/03/03 10:41:07;;;;;;;25.95;16.00;;;;;;;;;;5125643;28;20023;-47
2023/03/03 10:43:45;;;;;;;25.77;15.20;;;;;;;;;;5125782;28;20027;-48
2023/03/03 10:46:23;;;;;;;26.08;14.80;;;;;;;;;;5124646;28;20564;-47
2023/03/03 10:48:49;;;;;;;23.73;14.75;;;;;;;;;;5125940;28;20498;-47
2023/03/03 10:51:33;;;;;;;32.63;19.92;;;;;;;;;;5126527;28;20076;-46
2023/03/03 10:54:18;;;;;;;38.63;22.15;;;;;;;;;;5125796;27;20038;-49
2023/03/03 10:56:55;;;;;;;34.03;19.50;;;;;;;;;;5126430;28;20373;-48
2023/03/03 10:59:35;;;;;;;33.10;19.60;;;;;;;;;;5125885;28;20473;-49
2023/03/03 11:02:05;;;;;;;42.35;23.77;;;;;;;;;;5125576;28;20031;-47
2023/03/03 11:04:50;;;;;;;38.67;21.05;;;;;;;;;;5126006;28;20051;-49
2023/03/03 11:07:19;;;;;;;32.22;19.65;;;;;;;;;;5126485;28;20498;-47
2023/03/03 11:09:48;;;;;;;27.00;15.95;;;;;;;;;;5126228;28;20023;-46
2023/03/03 11:12:27;;;;;;;24.45;14.95;;;;;;;;;;5125854;28;20035;-48
2023/03/03 11:15:08;;;;;;;35.83;20.67;;;;;;;;;;5126371;27;20039;-47
2023/03/03 11:18:07;;;;;;;36.65;20.70;;;;;;;;;;5129531;27;20091;-48
2023/03/03 11:20:38;;;;;;;34.50;20.98;;;;;;;;;;5094085;27;20065;-46
2023/03/03 11:23:07;;;;;;;36.05;20.65;;;;;;;;;;5128612;27;20034;-47
2023/03/03 11:25:39;;;;;;;32.38;20.00;;;;;;;;;;5129445;27;20050;-50
2023/03/03 11:28:41;;;;;;;29.52;16.90;;;;;;;;;;5129154;27;20019;-47
2023/03/03 11:31:26;;;;;;;27.98;16.27;;;;;;;;;;5065068;28;20153;-46
2023/03/03 11:33:52;;;;;;;;;;;;;;;;;;5125004;27;20042;-49
2023/03/03 11:36:31;;;;;;;23.45;14.10;;;;;;;;;;5129074;27;19907;-48
2023/03/03 11:38:59;;;;;;;21.10;12.80;;;;;;;;;;5128910;27;20032;-46
2023/03/03 11:41:31;;;;;;;20.67;12.98;;;;;;;;;;5127833;27;20031;-49
2023/03/03 11:44:17;;;;;;;23.90;14.38;;;;;;;;;;5128042;27;20552;-47
2023/03/03 11:46:46;;;;;;;27.05;16.25;;;;;;;;;;5129103;27;20110;-48
2023/03/03 11:49:16;;;;;;;22.50;13.98;;;;;;;;;;5129615;27;20019;-48
2023/03/03 11:51:55;;;;;;;27.33;15.38;;;;;;;;;;5129953;27;20076;-47
2023/03/03 11:54:24;;;;;;;29.23;17.98;;;;;;;;;;5130299;27;20031;-47
2023/03/03 11:56:55;;;;;;;28.63;16.80;;;;;;;;;;5129989;27;20128;-46
2023/03/03 11:59:24;;;;;;;23.92;14.10;;;;;;;;;;5130168;27;20031;-46
2023/03/03 12:01:59;;;;;;;20.67;12.10;;;;;;;;;;5129277;27;20038;-49
2023/03/03 12:04:37;;;;;;;22.98;13.55;;;;;;;;;;5128397;27;20107;-47
2023/03/03 12:07:12;;;;;;;23.02;14.15;;;;;;;;;;5126877;27;20055;-48
2023/03/03 12:09:45;;;;;;;22.50;13.45;;;;;;;;;;5110183;27;20027;-47
2023/03/03 12:12:14;;;;;;;20.40;12.27;;;;;;;;;;5125108;27;20176;-47
2023/03/03 12:14:43;;;;;;;16.90;10.68;;;;;;;;;;5126121;27;20034;-48
2023/03/03 12:17:21;;;;;;;16.27;10.23;;;;;;;;;;5128297;27;20062;-46
2023/03/03 12:19:47;;;;;;;24.38;14.00;;;;;;;;;;5128217;27;20152;-46
2023/03/03 12:22:19;;;;;;;19.95;12.88;;;;;;;;;;5128089;27;20034;-47
2023/03/03 12:25:03;;;;;;;27.88;16.73;;;;;;;;;;5128238;27;20024;-47
2023/03/03 12:27:30;;;;;;;;;;;;;;;;;;5129030;27;20035;-49
2023/03/03 12:30:02;;;;;;;28.17;16.10;;;;;;;;;;5128354;27;19907;-46
2023/03/03 12:32:29;;;;;;;21.83;12.88;;;;;;;;;;5128680;27;20027;-47
2023/03/03 12:34:55;;;;;;;21.45;12.77;;;;;;;;;;5127888;27;20027;-46
2023/03/03 12:37:36;;;;;;;22.23;13.82;;;;;;;;;;5127960;27;20027;-47
2023/03/03 12:40:09;;;;;;;23.80;13.25;;;;;;;;;;5126165;27;20027;-47
2023/03/03 12:42:39;;;;;;;16.50;10.90;;;;;;;;;;5127555;27;20506;-48
2023/03/03 12:45:05;;;;;;;17.45;10.65;;;;;;;;;;5127731;27;20743;-46
2023/03/03 12:47:38;;;;;;;16.70;11.15;;;;;;;;;;5127779;27;20148;-46
2023/03/03 12:50:04;;;;;;;21.25;12.70;;;;;;;;;;5127567;27;20015;-47
2023/03/03 12:52:31;;;;;;;30.05;17.38;;;;;;;;;;5128212;27;20424;-47
2023/03/03 12:55:08;;;;;;;29.55;17.80;;;;;;;;;;5127775;27;20031;-47
2023/03/03 12:57:42;;;;;;;24.73;14.70;;;;;;;;;;5127561;27;20023;-48
2023/03/03 13:00:08;;;;;;;;;;;;;;;;;;5127951;27;20034;-47
2023/03/03 13:02:41;;;;;;;18.38;11.70;;;;;;;;;;5127422;27;19907;-48
2023/03/03 13:05:34;;;;;;;19.33;12.35;;;;;;;;;;5127277;27;20027;-46
2023/03/03 13:08:06;;;;;;;19.67;11.88;;;;;;;;;;5111339;27;20066;-47
2023/03/03 13:10:41;;;;;;;18.52;10.88;;;;;;;;;;5127120;27;20064;-47
2023/03/03 13:13:07;;;;;;;16.23;10.27;;;;;;;;;;5126748;27;20106;-49
2023/03/03 13:15:42;;;;;;;16.13;9.95;;;;;;;;;;5127358;27;20114;-47
2023/03/03 13:18:27;;;;;;;20.00;12.25;;;;;;;;;;5127071;27;20494;-48
2023/03/03 13:20:59;;;;;;;17.40;11.45;;;;;;;;;;5126988;27;20027;-48
2023/03/03 13:23:31;;;;;;;20.90;11.73;;;;;;;;;;5127000;27;20130;-47
2023/03/03 13:26:02;;;;;;;23.60;13.85;;;;;;;;;;5127253;27;20514;-46
2023/03/03 13:28:38;;;;;;;19.80;11.63;;;;;;;;;;5127507;27;20106;-48
2023/03/03 13:31:16;;;;;;;18.70;11.20;;;;;;;;;;5126655;27;20015;-48
2023/03/03 13:33:48;;;;;;;16.30;10.00;;;;;;;;;;5126863;27;20023;-46
2023/03/03 13:36:16;;;;;;;17.45;10.45;;;;;;;;;;5126925;27;20019;-48
2023/03/03 13:38:46;;;;;;;19.13;11.90;;;;;;;;;;5126170;27;20031;-47
2023/03/03 13:41:35;;;;;;;21.02;12.07;;;;;;;;;;5126289;27;20038;-49
2023/03/03 13:44:04;;;;;;;18.10;11.02;;;;;;;;;;5120878;27;20072;-45
2023/03/03 13:46:36;;;;;;;18.33;10.80;;;;;;;;;;5127413;27;20015;-47
2023/03/03 13:49:11;;;;;;;21.38;12.23;;;;;;;;;;5126587;27;20054;-48
2023/03/03 13:51:43;;;;;;;18.50;10.68;;;;;;;;;;5126599;27;20106;-47
2023/03/03 13:54:15;;;;;;;14.50;9.05;;;;;;;;;;5126478;27;20390;-46
2023/03/03 13:56:53;;;;;;;15.38;9.52;;;;;;;;;;5126498;27;20034;-47
2023/03/03 13:59:25;;;;;;;15.35;9.88;;;;;;;;;;5126374;27;20098;-47
2023/03/03 14:01:55;;;;;;;16.55;9.85;;;;;;;;;;5126263;27;21247;-47
2023/03/03 14:04:37;;;;;;;16.05;10.32;;;;;;;;;;5126464;27;20031;-46
2023/03/03 14:07:24;;;;;;;16.10;10.10;;;;;;;;;;5126532;27;20098;-45
2023/03/03 14:09:54;;;;;;;16.42;10.25;;;;;;;;;;5112015;27;20152;-47
2023/03/03 14:12:29;;;;;;;15.75;9.88;;;;;;;;;;5114216;27;20163;-46
2023/03/03 14:14:55;;;;;;;15.45;9.13;;;;;;;;;;5105584;28;20504;-49
2023/03/03 14:17:22;;;;;;;14.45;9.15;;;;;;;;;;5105836;28;20035;-48
2023/03/03 14:20:09;;;;;;;14.27;9.07;;;;;;;;;;5105697;28;20032;-47
2023/03/03 14:22:46;;;;;;;13.20;8.48;;;;;;;;;;5087764;28;20577;-47
2023/03/03 14:25:13;;;;;;;13.50;8.60;;;;;;;;;;5105454;28;20455;-48
2023/03/03 14:27:48;;;;;;;12.18;7.68;;;;;;;;;;5105522;28;20055;-48
2023/03/03 14:30:29;;;;;;;12.30;8.02;;;;;;;;;;5105534;28;20035;-49
2023/03/03 14:32:58;;;;;;;13.05;8.48;;;;;;;;;;5105474;28;20031;-48
2023/03/03 14:35:29;;;;;;;14.20;8.70;;;;;;;;;;5105611;28;20383;-49
2023/03/03 14:38:00;;;;;;;11.90;7.85;;;;;;;;;;5105444;28;20027;-48
2023/03/03 14:40:33;;;;;;;13.88;8.73;;;;;;;;;;5105378;28;20430;-47
2023/03/03 14:43:00;;;;;;;14.60;8.43;;;;;;;;;;5106085;28;20024;-48
2023/03/03 14:45:42;;;;;;;17.48;10.15;;;;;;;;;;5105849;28;20024;-50
2023/03/03 14:48:21;;;;;;;17.63;10.23;;;;;;;;;;5105432;28;20024;-47
2023/03/03 14:50:52;;;;;;;15.50;10.15;;;;;;;;;;5107947;28;20023;-46
2023/03/03 14:53:19;;;;;;;14.48;9.70;;;;;;;;;;5109313;28;20034;-48
2023/03/03 14:55:47;;;;;;;15.57;9.52;;;;;;;;;;5109545;28;20035;-47
2023/03/03 14:58:25;;;;;;;13.95;9.20;;;;;;;;;;5109420;28;20028;-46
2023/03/03 15:01:06;;;;;;;13.95;8.63;;;;;;;;;;5109538;28;20184;-46
2023/03/03 15:03:38;;;;;;;15.00;9.10;;;;;;;;;;5109427;28;20070;-46
2023/03/03 15:06:15;;;;;;;14.52;9.88;;;;;;;;;;5109256;28;20445;-46
2023/03/03 15:08:42;;;;;;;14.55;9.63;;;;;;;;;;5108921;28;20028;-47
2023/03/03 15:11:17;;;;;;;13.48;8.70;;;;;;;;;;5108923;28;20106;-46
2023/03/03 15:13:43;;;;;;;14.27;9.15;;;;;;;;;;5108939;28;20126;-46
2023/03/03 15:16:09;;;;;;;15.18;9.60;;;;;;;;;;5108824;28;20049;-47
2023/03/03 15:18:50;;;;;;;19.75;11.70;;;;;;;;;;5109036;28;20216;-50
2023/03/03 15:21:18;;;;;;;18.65;12.00;;;;;;;;;;5108792;28;20028;-49
2023/03/03 15:23:54;;;;;;;27.45;15.60;;;;;;;;;;5108650;28;20030;-47
2023/03/03 15:26:23;;;;;;;25.58;15.60;;;;;;;;;;5109345;28;20061;-49
2023/03/03 15:29:07;;;;;;;20.50;13.15;;;;;;;;;;5108859;28;20049;-46
2023/03/03 15:31:55;;;;;;;19.15;11.55;;;;;;;;;;5109072;28;20024;-46
2023/03/03 15:34:28;;;;;;;15.57;10.20;;;;;;;;;;5108697;28;20024;-50
2023/03/03 15:36:55;;;;;;;16.00;10.05;;;;;;;;;;5108680;28;20509;-48
2023/03/03 15:39:41;;;;;;;16.23;9.90;;;;;;;;;;5108817;28;20033;-48
2023/03/03 15:42:14;;;;;;;16.08;9.93;;;;;;;;;;5108317;28;20495;-49
2023/03/03 15:44:49;;;;;;;13.80;8.75;;;;;;;;;;5108861;28;20051;-46
2023/03/03 15:47:23;;;;;;;15.05;9.27;;;;;;;;;;5108424;28;20016;-48
2023/03/03 15:50:18;;;;;;;15.25;9.63;;;;;;;;;;5108525;28;20030;-47
2023/03/03 15:53:03;;;;;;;16.40;10.55;;;;;;;;;;5017432;28;20045;-46
2023/03/03 15:55:29;;;;;;;;;;;;;;;;;;5109463;28;20107;-48
2023/03/03 15:58:01;;;;;;;15.68;10.25;;;;;;;;;;5116801;27;19921;-47
2023/03/03 16:00:34;;;;;;;16.95;10.65;;;;;;;;;;5128693;27;20031;-51
2023/03/03 16:03:19;;;;;;;15.23;10.05;;;;;;;;;;5128346;27;20412;-47
2023/03/03 16:05:56;;;;;;;15.55;10.05;;;;;;;;;;5129085;27;20024;-46
2023/03/03 16:08:24;;;;;;;14.65;9.85;;;;;;;;;;5130040;27;20505;-48
2023/03/03 16:11:07;;;;;;;15.60;10.90;;;;;;;;;;5129928;27;20692;-46
2023/03/03 16:13:58;;;;;;;15.93;10.50;;;;;;;;;;5109417;28;20150;-46
2023/03/03 16:16:43;;;;;;;16.17;10.18;;;;;;;;;;5109163;28;20433;-47
2023/03/03 16:19:18;;;;;;;16.23;10.18;;;;;;;;;;5110085;27;20020;-51
2023/03/03 16:22:07;;;;;;;16.08;11.20;;;;;;;;;;5129723;27;20031;-51
2023/03/03 16:24:40;;;;;;;19.35;11.65;;;;;;;;;;5123630;27;20106;-49
2023/03/03 16:27:20;;;;;;;16.25;10.70;;;;;;;;;;5129207;27;20075;-48
2023/03/03 16:30:04;;;;;;;16.13;10.85;;;;;;;;;;5128660;27;20019;-48
2023/03/03 16:32:36;;;;;;;17.45;11.35;;;;;;;;;;5130106;27;20045;-49
2023/03/03 16:35:14;;;;;;;14.43;9.93;;;;;;;;;;5129274;27;20027;-49
2023/03/03 16:37:43;;;;;;;17.55;10.77;;;;;;;;;;5123771;27;20066;-46
2023/03/03 16:40:21;;;;;;;16.17;10.15;;;;;;;;;;5125254;27;20047;-50
2023/03/03 16:42:50;;;;;;;16.27;10.65;;;;;;;;;;5127093;27;20561;-48
2023/03/03 16:45:22;;;;;;;15.20;10.15;;;;;;;;;;5127295;27;20040;-48
2023/03/03 16:47:57;;;;;;;16.52;10.43;;;;;;;;;;5127647;27;20034;-48
2023/03/03 16:50:35;;;;;;;15.80;10.05;;;;;;;;;;5126524;27;20026;-47
2023/03/03 16:53:21;;;;;;;15.35;10.45;;;;;;;;;;5130621;27;20031;-47
2023/03/03 16:55:59;;;;;;;18.80;11.23;;;;;;;;;;5126632;27;20038;-49
2023/03/03 16:58:34;;;;;;;17.55;9.95;;;;;;;;;;5125104;27;20039;-47
2023/03/03 17:01:19;;;;;;;19.15;11.48;;;;;;;;;;5127439;27;20023;-46
2023/03/03 17:03:45;;;;;;;21.60;11.77;;;;;;;;;;5126600;27;20039;-50
2023/03/03 17:06:23;;;;;;;25.98;13.20;;;;;;;;;;5126892;27;20023;-48
2023/03/03 17:08:49;;;;;;;21.83;11.75;;;;;;;;;;5126964;27;20031;-49
2023/03/03 17:11:24;;;;;;;20.63;11.00;;;;;;;;;;5126557;27;20019;-49
2023/03/03 17:13:53;;;;;;;22.30;12.00;;;;;;;;;;5124458;27;20035;-47
2023/03/03 17:16:30;;;;;;;20.17;11.20;;;;;;;;;;5127057;27;20417;-46
2023/03/03 17:18:57;;;;;;;19.30;11.52;;;;;;;;;;5126830;27;20447;-49
2023/03/03 17:21:32;;;;;;;18.42;10.95;;;;;;;;;;5126578;27;20033;-47
2023/03/03 17:24:04;;;;;;;19.55;12.07;;;;;;;;;;5127296;27;20039;-47
2023/03/03 17:26:35;;;;;;;18.98;11.13;;;;;;;;;;5127717;27;20027;-47
2023/03/03 17:29:15;;;;;;;17.85;10.07;;;;;;;;;;5127358;27;20452;-49
2023/03/03 17:31:57;;;;;;;17.73;10.40;;;;;;;;;;5126862;27;20027;-46
2023/03/03 17:34:23;;;;;;;19.95;11.25;;;;;;;;;;5126082;27;20097;-50
2023/03/03 17:36:49;;;;;;;17.58;11.27;;;;;;;;;;5127736;27;20050;-47
2023/03/03 17:39:28;;;;;;;17.92;10.48;;;;;;;;;;5124367;27;20018;-49
2023/03/03 17:42:01;;;;;;;18.00;10.35;;;;;;;;;;5120109;27;20042;-49
2023/03/03 17:44:38;;;;;;;15.18;10.00;;;;;;;;;;5128726;27;20023;-46
2023/03/03 17:47:25;;;;;;;16.50;10.68;;;;;;;;;;5112895;27;20478;-47
2023/03/03 17:50:00;;;;;;;16.10;10.38;;;;;;;;;;5108606;28;20363;-48
2023/03/03 17:52:45;;;;;;;16.58;10.13;;;;;;;;;;5128236;27;20046;-50
2023/03/03 17:55:11;;;;;;;;;;;;;;;;;;5122096;27;20023;-49
2023/03/03 17:57:52;;;;;;;16.40;9.85;;;;;;;;;;5129170;27;20018;-47
2023/03/03 18:00:27;;;;;;;19.50;11.52;;;;;;;;;;5128617;27;20027;-49
2023/03/03 18:03:12;;;;;;;20.15;12.00;;;;;;;;;;5110386;27;20027;-47
2023/03/03 18:05:41;;;;;;;20.33;11.57;;;;;;;;;;5128234;27;20107;-50
2023/03/03 18:08:20;;;;;;;16.77;10.45;;;;;;;;;;5127292;27;20026;-48
2023/03/03 18:10:46;;;;;;;16.10;10.50;;;;;;;;;;5128552;27;20023;-46
2023/03/03 18:13:23;;;;;;;16.65;10.05;;;;;;;;;;5127315;27;20054;-50
2023/03/03 18:15:55;;;;;;;19.35;11.90;;;;;;;;;;5126035;27;20038;-51
2023/03/03 18:18:41;;;;;;;18.13;11.45;;;;;;;;;;5127454;27;20397;-48
2023/03/03 18:21:07;;;;;;;21.27;12.57;;;;;;;;;;5106953;28;20080;-48
2023/03/03 18:23:40;;;;;;;20.70;12.07;;;;;;;;;;5107416;28;20031;-46
2023/03/03 18:26:25;;;;;;;19.17;11.32;;;;;;;;;;5113730;28;20019;-47
2023/03/03 18:28:50;;;;;;;;;;;;;;;;;;5114194;28;20241;-50
2023/03/03 18:31:23;;;;;;;15.98;10.40;;;;;;;;;;5113480;28;20542;-46
2023/03/03 18:33:51;;;;;;;16.50;9.68;;;;;;;;;;5129009;27;20042;-47
2023/03/03 18:36:27;;;;;;;18.20;9.68;;;;;;;;;;5146477;27;20030;-50
2023/03/03 18:38:57;;;;;;;14.88;8.98;;;;;;;;;;5154823;27;20434;-50
2023/03/03 18:41:30;;;;;;;15.43;9.32;;;;;;;;;;5154763;27;20037;-49
2023/03/03 18:44:03;;;;;;;16.13;9.32;;;;;;;;;;5138225;27;20521;-47
2023/03/03 18:46:35;;;;;;;16.63;9.88;;;;;;;;;;5134986;27;20019;-48
2023/03/03 18:49:01;;;;;;;16.48;9.35;;;;;;;;;;5133122;27;20087;-48
2023/03/03 18:51:33;;;;;;;17.13;9.93;;;;;;;;;;5133348;27;20536;-51
2023/03/03 18:54:21;;;;;;;17.13;10.43;;;;;;;;;;5133606;27;20023;-50
2023/03/03 18:56:56;;;;;;;16.48;10.45;;;;;;;;;;5131992;27;20031;-49
2023/03/03 18:59:32;;;;;;;18.63;11.43;;;;;;;;;;5132057;27;20422;-50
2023/03/03 19:02:24;;;;;;;19.52;11.10;;;;;;;;;;5131756;27;20171;-46
2023/03/03 19:05:05;;;;;;;18.63;11.40;;;;;;;;;;5131875;27;20031;-48
2023/03/03 19:07:40;;;;;;;22.63;12.75;;;;;;;;;;5132303;27;20027;-49
2023/03/03 19:10:13;;;;;;;29.48;15.23;;;;;;;;;;5131008;27;20072;-50
2023/03/03 19:12:42;;;;;;;35.67;17.17;;;;;;;;;;5131102;27;20058;-51
2023/03/03 19:15:28;;;;;;;30.90;15.48;;;;;;;;;;5130522;27;20291;-51
2023/03/03 19:18:14;;;;;;;37.20;20.58;;;;;;;;;;5130184;27;20027;-50
2023/03/03 19:20:46;;;;;;;38.22;21.05;;;;;;;;;;5131997;27;20031;-46
2023/03/03 19:23:21;;;;;;;30.92;17.55;;;;;;;;;;5131424;27;20019;-51
2023/03/03 19:26:07;;;;;;;29.08;16.50;;;;;;;;;;5132993;27;20058;-48
2023/03/03 19:28:43;;;;;;;30.88;17.00;;;;;;;;;;5132535;27;20050;-50
2023/03/03 19:31:27;;;;;;;29.05;16.70;;;;;;;;;;5132040;27;20035;-49
2023/03/03 19:34:05;;;;;;;25.95;14.82;;;;;;;;;;5131863;27;20031;-50
2023/03/03 19:36:37;;;;;;;25.55;13.75;;;;;;;;;;5129647;27;20026;-46
2023/03/03 19:39:21;;;;;;;24.35;13.30;;;;;;;;;;5129011;27;20027;-48
2023/03/03 19:41:59;;;;;;;24.85;13.02;;;;;;;;;;5129058;27;20027;-50
2023/03/03 19:44:25;;;;;;;24.52;14.13;;;;;;;;;;5125716;27;20127;-48
2023/03/03 19:46:51;;;;;;;27.33;15.55;;;;;;;;;;5129573;27;20384;-48
2023/03/03 19:49:21;;;;;;;24.65;13.02;;;;;;;;;;5129149;27;20552;-48
2023/03/03 19:51:56;;;;;;;22.65;12.95;;;;;;;;;;5128870;27;20027;-48
2023/03/03 19:54:38;;;;;;;21.40;11.90;;;;;;;;;;5118625;27;20933;-50
2023/03/03 19:57:09;;;;;;;22.42;12.13;;;;;;;;;;5090017;28;20122;-49
2023/03/03 19:59:35;;;;;;;21.23;12.18;;;;;;;;;;5128465;27;20022;-50